Time;durP1;ratioP1;P1;durP2;ratioP2;P2;SDS_P1;SDS_P2;PMS_P1;PMS_P2;Temp;Humidity;BMP_temperature;BMP_pressure;BME280_temperature;BME280_humidity;BME280_pressure;Samples;Min_cycle;Max_cycle;Signal;HPM_P1;HPM_P2
2021/12/03 00:00:49;;;;;;;11.38;6.05;;;;;;;6.21;59.51;94049.38;5039897;28;20197;-61
2021/12/03 00:03:18;;;;;;;8.60;6.03;;;;;;;6.18;59.47;94065.47;5037575;28;20306;-61
2021/12/03 00:05:45;;;;;;;9.02;6.15;;;;;;;6.36;59.17;94054.69;5037940;28;20228;-63
2021/12/03 00:08:13;;;;;;;8.25;5.68;;;;;;;6.43;58.79;94065.66;5049260;28;20192;-61
2021/12/03 00:10:40;;;;;;;10.68;6.10;;;;;;;6.72;58.27;94063.50;5048447;28;20193;-61
2021/12/03 00:13:08;;;;;;;8.57;5.55;;;;;;;6.57;58.80;94090.22;5064037;28;20204;-61
2021/12/03 00:15:37;;;;;;;8.98;5.68;;;;;;;6.55;58.86;94029.81;5049014;28;20224;-64
2021/12/03 00:18:04;;;;;;;7.60;3.70;;;;;;;6.43;59.06;94076.06;5047617;28;20283;-63
2021/12/03 00:20:36;;;;;;;9.18;5.45;;;;;;;6.33;59.80;94096.81;5037945;28;20208;-62
2021/12/03 00:23:05;;;;;;;8.75;5.57;;;;;;;6.48;59.85;94039.69;5036479;28;20200;-63
2021/12/03 00:25:33;;;;;;;11.55;6.10;;;;;;;6.72;58.62;94056.50;5036520;28;20208;-62
2021/12/03 00:28:01;;;;;;;8.77;5.63;;;;;;;6.41;59.89;94088.53;5040149;28;20553;-63
2021/12/03 00:30:33;;;;;;;9.48;5.35;;;;;;;6.67;59.29;94079.09;5041884;28;20196;-61
2021/12/03 00:33:01;;;;;;;10.20;5.22;;;;;;;6.78;59.22;94034.66;5049061;28;20213;-62
2021/12/03 00:35:30;;;;;;;9.20;4.60;;;;;;;6.37;59.99;94074.47;5049516;28;20228;-62
2021/12/03 00:37:57;;;;;;;10.35;6.15;;;;;;;6.62;59.84;94042.63;5049200;28;20201;-62
2021/12/03 00:40:29;;;;;;;8.75;5.60;;;;;;;6.62;59.57;94050.44;5049356;28;20740;-62
2021/12/03 00:42:57;;;;;;;6.97;5.15;;;;;;;6.67;59.70;94079.91;5048788;28;20273;-61
2021/12/03 00:45:24;;;;;;;8.18;5.63;;;;;;;7.07;58.36;94056.69;5048560;28;20781;-61
2021/12/03 00:47:51;;;;;;;9.02;5.63;;;;;;;6.97;58.27;94080.06;5048720;28;20718;-63
2021/12/03 00:50:22;;;;;;;8.20;5.63;;;;;;;6.76;59.11;94093.22;5039495;28;20947;-67
2021/12/03 00:52:51;;;;;;;9.38;5.75;;;;;;;6.89;58.69;94070.13;5038700;28;20447;-65
2021/12/03 00:55:20;;;;;;;8.63;5.47;;;;;;;7.25;57.34;94070.28;5040455;28;20585;-61
2021/12/03 00:57:47;;;;;;;7.13;5.47;;;;;;;7.27;57.82;94070.81;5039993;28;20445;-61
2021/12/03 01:00:19;;;;;;;8.75;5.25;;;;;;;7.26;57.48;94066.66;5038346;28;20477;-60
2021/12/03 01:02:46;;;;;;;8.27;5.33;;;;;;;7.09;58.98;94056.44;5032610;28;20192;-62
2021/12/03 01:05:13;;;;;;;12.00;5.90;;;;;;;6.98;59.31;94060.81;5032815;28;20444;-64
2021/12/03 01:07:40;;;;;;;11.13;5.93;;;;;;;6.86;59.22;94067.25;5035919;28;20478;-62
2021/12/03 01:10:08;;;;;;;8.70;5.07;;;;;;;6.52;60.28;94082.38;5031841;28;20431;-60
2021/12/03 01:12:37;;;;;;;8.60;5.77;;;;;;;6.95;59.26;94079.53;5032641;28;20204;-60
2021/12/03 01:15:09;;;;;;;9.18;5.95;;;;;;;7.40;57.62;94067.75;5040138;28;20482;-62
2021/12/03 01:17:37;;;;;;;9.00;5.18;;;;;;;7.16;57.82;94060.38;5036198;28;20205;-62
2021/12/03 01:20:09;;;;;;;7.78;4.95;;;;;;;7.15;58.61;94082.22;5032734;28;20197;-63
2021/12/03 01:22:37;;;;;;;12.80;6.37;;;;;;;7.09;58.67;94077.25;5036738;28;20200;-62
2021/12/03 01:25:07;;;;;;;10.23;6.25;;;;;;;7.37;57.41;94073.47;5034990;28;20442;-63
2021/12/03 01:27:35;;;;;;;7.37;5.83;;;;;;;7.16;58.48;94056.97;5035601;28;21026;-61
2021/12/03 01:30:06;;;;;;;10.23;6.03;;;;;;;7.19;58.52;94085.09;5043941;28;21148;-62
2021/12/03 01:32:33;;;;;;;11.07;5.80;;;;;;;6.97;59.07;94058.47;5048536;28;20506;-63
2021/12/03 01:35:00;;;;;;;9.90;5.27;;;;;;;6.99;59.38;94064.97;5048842;28;20470;-64
2021/12/03 01:37:27;;;;;;;8.43;5.35;;;;;;;6.96;59.21;94096.72;5048343;28;20434;-65
2021/12/03 01:39:54;;;;;;;10.57;5.57;;;;;;;7.08;59.55;94054.84;5048678;28;20193;-61
2021/12/03 01:42:21;;;;;;;8.93;5.83;;;;;;;7.46;58.34;94025.81;5048309;28;20223;-62
2021/12/03 01:44:48;;;;;;;12.27;5.50;;;;;;;7.00;58.45;94035.31;5048684;28;20822;-61
2021/12/03 01:47:15;;;;;;;11.60;5.50;;;;;;;7.40;58.36;94042.47;5047937;28;20245;-60
2021/12/03 01:49:42;;;;;;;7.07;5.03;;;;;;;7.39;58.47;94045.34;5046521;28;20447;-61
2021/12/03 01:52:10;;;;;;;8.03;4.80;;;;;;;7.61;58.20;94045.94;5035210;28;20628;-64
2021/12/03 01:54:38;;;;;;;8.07;4.77;;;;;;;7.48;57.87;94062.06;5037159;28;20451;-61
2021/12/03 01:57:05;;;;;;;8.43;4.83;;;;;;;7.50;58.24;94052.16;5037517;28;20453;-61
2021/12/03 01:59:32;;;;;;;10.38;5.07;;;;;;;7.67;58.25;94055.31;5038934;28;20435;-60
2021/12/03 02:02:00;;;;;;;7.57;5.20;;;;;;;7.67;57.99;94052.72;5039317;28;20821;-62
2021/12/03 02:04:27;;;;;;;7.07;4.57;;;;;;;7.60;58.57;94015.69;5048502;28;20434;-64
2021/12/03 02:06:54;;;;;;;6.50;3.67;;;;;;;7.78;58.04;94009.97;5048361;28;20548;-60
2021/12/03 02:09:21;;;;;;;7.13;4.90;;;;;;;8.00;58.01;94031.38;5048458;28;20443;-64
2021/12/03 02:11:48;;;;;;;5.37;3.93;;;;;;;8.22;57.10;94016.25;5037389;28;20451;-62
2021/12/03 02:14:15;;;;;;;4.63;3.20;;;;;;;8.45;56.42;94007.91;5040302;28;20454;-62
2021/12/03 02:16:45;;;;;;;4.67;3.20;;;;;;;8.71;55.51;94030.31;5044325;28;20493;-62
2021/12/03 02:19:13;;;;;;;6.90;2.80;;;;;;;8.96;55.21;94030.25;5051900;28;20442;-62
2021/12/03 02:21:41;;;;;;;6.23;3.17;;;;;;;9.13;55.52;94024.72;5049826;28;20434;-63
2021/12/03 02:24:08;;;;;;;5.53;3.03;;;;;;;9.10;55.46;94014.81;5046476;28;20528;-61
2021/12/03 02:26:35;;;;;;;4.80;3.60;;;;;;;9.04;55.21;94006.22;5040159;28;21015;-62
2021/12/03 02:29:03;;;;;;;9.60;6.53;;;;;;;9.00;55.62;94018.25;5040596;28;20427;-65
2021/12/03 02:31:30;;;;;;;4.97;3.23;;;;;;;9.23;54.79;94033.31;5043629;28;20446;-64
2021/12/03 02:33:57;;;;;;;4.67;3.17;;;;;;;9.12;55.21;93989.97;5051151;28;20481;-60
2021/12/03 02:36:24;;;;;;;5.27;3.50;;;;;;;9.31;54.63;94005.03;5051592;28;20497;-61
2021/12/03 02:38:53;;;;;;;6.67;3.67;;;;;;;9.17;55.34;93999.63;5051322;28;20451;-61
2021/12/03 02:41:20;;;;;;;6.40;3.53;;;;;;;9.38;53.88;94005.56;5051825;28;21048;-62
2021/12/03 02:43:47;;;;;;;8.40;4.47;;;;;;;9.13;53.65;94020.28;5039369;28;20435;-60
2021/12/03 02:46:14;;;;;;;5.57;3.43;;;;;;;9.28;54.40;94021.25;5041995;28;20452;-61
2021/12/03 02:48:41;;;;;;;8.87;3.57;;;;;;;8.89;55.35;94014.09;5040035;28;20498;-60
2021/12/03 02:51:10;;;;;;;7.73;4.30;;;;;;;8.94;54.48;94005.47;5035313;28;20451;-61
2021/12/03 02:53:37;;;;;;;7.53;4.20;;;;;;;9.00;55.38;94009.59;5040269;28;20450;-62
2021/12/03 02:56:06;;;;;;;7.53;3.97;;;;;;;8.85;55.01;94018.28;5035493;28;20482;-61
2021/12/03 02:58:34;;;;;;;5.87;3.30;;;;;;;9.11;54.44;94006.69;5055804;28;20860;-62
2021/12/03 03:01:04;;;;;;;6.30;2.90;;;;;;;9.30;54.19;94003.47;5025618;28;20450;-62
2021/12/03 03:03:31;;;;;;;6.13;3.10;;;;;;;9.29;53.80;94004.56;5047181;28;20651;-60
2021/12/03 03:06:00;;;;;;;6.90;3.37;;;;;;;9.19;54.80;94003.53;5042466;28;20478;-60
2021/12/03 03:08:28;;;;;;;6.47;3.30;;;;;;;8.97;55.36;94037.06;5050815;28;20446;-60
2021/12/03 03:10:56;;;;;;;6.13;3.00;;;;;;;9.39;54.42;94017.56;5040372;28;20553;-59
2021/12/03 03:13:24;;;;;;;5.40;2.80;;;;;;;9.59;53.89;94002.56;5057083;28;20445;-61
2021/12/03 03:15:52;;;;;;;4.97;2.43;;;;;;;9.62;54.05;94032.59;5041434;28;21106;-60
2021/12/03 03:18:23;;;;;;;5.83;2.00;;;;;;;10.01;52.80;94036.03;5039739;28;20439;-64
2021/12/03 03:20:53;;;;;;;5.93;1.90;;;;;;;10.17;52.16;94020.00;5032764;28;20524;-60
2021/12/03 03:23:21;;;;;;;3.90;2.30;;;;;;;9.78;52.78;94021.03;5041718;28;20469;-61
2021/12/03 03:25:49;;;;;;;4.60;2.10;;;;;;;9.89;52.49;94012.81;5036521;28;20574;-62
2021/12/03 03:28:19;;;;;;;5.17;2.20;;;;;;;10.03;52.41;94024.25;5038487;28;20882;-62
2021/12/03 03:30:49;;;;;;;3.87;2.20;;;;;;;10.02;51.78;94016.66;5041174;28;20454;-60
2021/12/03 03:33:16;;;;;;;4.07;2.60;;;;;;;9.93;52.36;94018.28;5050099;28;20447;-60
2021/12/03 03:35:44;;;;;;;4.40;2.00;;;;;;;9.96;52.00;94023.00;5050041;28;20566;-63
2021/12/03 03:38:12;;;;;;;4.90;2.40;;;;;;;9.82;52.43;94028.03;5050565;28;21003;-61
2021/12/03 03:40:41;;;;;;;3.27;2.10;;;;;;;9.77;53.06;94019.44;5050901;28;20976;-62
2021/12/03 03:43:09;;;;;;;4.17;2.47;;;;;;;9.29;54.59;94004.56;5038915;28;20443;-62
2021/12/03 03:45:38;;;;;;;11.60;5.57;;;;;;;9.27;54.77;94010.03;5041033;28;20453;-64
2021/12/03 03:48:05;;;;;;;5.10;3.10;;;;;;;8.90;55.10;94026.13;5040645;28;20462;-63
2021/12/03 03:50:33;;;;;;;4.70;2.43;;;;;;;8.95;55.21;94028.72;5040269;28;20554;-62
2021/12/03 03:53:00;;;;;;;3.70;2.40;;;;;;;9.33;54.24;94016.00;5049601;28;20439;-63
2021/12/03 03:55:27;;;;;;;3.87;2.37;;;;;;;9.19;54.60;94045.38;5050310;28;20433;-61
2021/12/03 03:57:58;;;;;;;4.40;2.10;;;;;;;9.36;53.72;94045.00;5049861;28;20435;-61
2021/12/03 04:00:30;;;;;;;4.80;2.40;;;;;;;9.39;53.78;94048.94;5037429;28;20441;-61
2021/12/03 04:02:58;;;;;;;6.40;2.80;;;;;;;9.32;53.96;94064.91;5038129;28;20553;-62
2021/12/03 04:05:25;;;;;;;4.73;2.60;;;;;;;9.47;53.68;94045.78;5035097;28;20524;-61
2021/12/03 04:07:52;;;;;;;6.43;2.77;;;;;;;9.27;52.77;94056.31;5040898;28;20529;-61
2021/12/03 04:10:19;;;;;;;4.50;2.60;;;;;;;9.36;52.29;94033.78;5048820;28;20546;-60
2021/12/03 04:12:46;;;;;;;3.63;2.63;;;;;;;9.32;52.85;94017.06;5049511;28;20504;-63
2021/12/03 04:15:14;;;;;;;4.70;2.70;;;;;;;8.69;54.14;94013.34;5048166;28;20472;-63
2021/12/03 04:17:42;;;;;;;3.40;2.43;;;;;;;8.81;53.72;94053.03;5045912;28;20497;-62
2021/12/03 04:20:12;;;;;;;5.47;2.27;;;;;;;8.93;53.89;94030.81;5040109;28;20447;-63
2021/12/03 04:22:41;;;;;;;3.43;2.83;;;;;;;9.10;54.09;94044.31;5036482;28;20555;-59
2021/12/03 04:25:20;;;;;;;3.97;3.10;;;;;;;9.18;53.17;94048.22;5037997;28;20430;-61
2021/12/03 04:27:48;;;;;;;6.13;2.60;;;;;;;9.03;53.27;94061.34;5041207;28;20435;-60
2021/12/03 04:30:19;;;;;;;7.07;3.10;;;;;;;9.04;53.31;94050.63;5031099;28;21423;-63
2021/12/03 04:32:48;;;;;;;5.90;3.13;;;;;;;9.14;53.87;94027.06;5036059;28;20451;-64
2021/12/03 04:35:15;;;;;;;4.87;2.93;;;;;;;9.10;53.47;94039.09;5037382;28;20445;-63
2021/12/03 04:37:44;;;;;;;6.10;2.93;;;;;;;8.63;54.41;94056.97;5037108;28;20552;-62
2021/12/03 04:40:13;;;;;;;5.27;2.80;;;;;;;8.77;54.71;94084.13;5037850;28;20457;-62
2021/12/03 04:42:40;;;;;;;5.93;3.40;;;;;;;8.80;54.20;94057.47;5048589;28;20486;-61
2021/12/03 04:45:09;;;;;;;7.17;2.87;;;;;;;8.76;55.08;94040.75;5049335;28;20458;-61
2021/12/03 04:47:37;;;;;;;8.13;3.13;;;;;;;8.94;54.30;94071.53;5049075;28;20478;-63
2021/12/03 04:50:07;;;;;;;4.00;2.93;;;;;;;8.87;53.57;94065.81;5049017;28;20439;-63
2021/12/03 04:52:33;;;;;;;3.93;3.10;;;;;;;9.11;53.20;94053.75;5037546;28;20458;-62
2021/12/03 04:55:01;;;;;;;6.77;4.03;;;;;;;8.97;54.79;94071.03;5048997;28;20431;-62
2021/12/03 04:57:27;;;;;;;5.57;3.23;;;;;;;8.49;55.23;94076.81;5049027;28;20500;-62
2021/12/03 04:59:55;;;;;;;6.50;3.10;;;;;;;8.81;53.73;94095.59;5049173;28;20910;-68
2021/12/03 05:02:24;;;;;;;4.87;2.90;;;;;;;8.54;54.17;94068.97;5044253;28;20446;-62
2021/12/03 05:04:53;;;;;;;4.23;3.43;;;;;;;9.03;53.82;94077.78;5049017;28;20435;-61
2021/12/03 05:07:53;;;;;;;4.37;3.13;;;;;;;9.05;53.90;94086.16;5048832;28;20496;-60
2021/12/03 05:10:18;;;;;;;6.57;3.27;;;;;;;8.93;53.85;94066.59;5049423;28;20522;-63
2021/12/03 05:12:45;;;;;;;4.00;2.50;;;;;;;8.80;53.73;94098.47;5048632;28;20965;-60
2021/12/03 05:15:29;;;;;;;5.07;3.40;;;;;;;8.99;53.45;94092.47;5049148;28;20446;-61
2021/12/03 05:17:57;;;;;;;4.73;3.30;;;;;;;9.05;53.19;94112.28;5048884;28;20489;-60
2021/12/03 05:20:25;;;;;;;6.10;3.33;;;;;;;8.84;53.92;94092.47;5047187;28;20447;-62
2021/12/03 05:22:53;;;;;;;8.87;3.43;;;;;;;8.27;55.29;94031.94;5046829;28;20431;-62
2021/12/03 05:25:21;;;;;;;5.27;4.10;;;;;;;8.43;55.38;94096.13;5046728;28;20458;-61
2021/12/03 05:27:50;;;;;;;6.13;3.97;;;;;;;8.22;55.81;94112.81;5046688;28;20503;-60
2021/12/03 05:30:17;;;;;;;4.83;3.83;;;;;;;8.55;55.25;94104.50;5047124;28;20439;-61
2021/12/03 05:32:45;;;;;;;7.20;3.87;;;;;;;8.69;54.79;94102.94;5046738;28;20985;-62
2021/12/03 05:35:13;;;;;;;6.87;3.97;;;;;;;8.93;54.62;94103.94;5047622;28;20455;-62
2021/12/03 05:37:40;;;;;;;7.47;4.10;;;;;;;8.57;55.89;94094.59;5048339;28;20556;-60
2021/12/03 05:40:09;;;;;;;7.70;4.10;;;;;;;8.54;55.74;94099.56;5047885;28;20514;-60
2021/12/03 05:42:38;;;;;;;7.33;3.80;;;;;;;8.68;54.97;94119.66;5048489;28;20549;-59
2021/12/03 05:45:08;;;;;;;6.47;3.60;;;;;;;8.59;54.68;94138.72;5048411;28;20443;-61
2021/12/03 05:47:35;;;;;;;7.77;3.67;;;;;;;8.60;54.49;94114.16;5049370;28;20477;-65
2021/12/03 05:50:04;;;;;;;6.27;3.80;;;;;;;8.72;55.13;94131.13;5051355;28;20431;-63
2021/12/03 05:52:31;;;;;;;6.93;2.60;;;;;;;9.02;53.54;94138.16;5049577;28;20435;-63
2021/12/03 05:54:58;;;;;;;8.33;2.90;;;;;;;9.61;53.26;94117.34;5052231;28;20541;-62
2021/12/03 05:57:25;;;;;;;6.20;2.70;;;;;;;9.93;52.32;94123.75;5051273;28;20489;-60
2021/12/03 05:59:52;;;;;;;110.73;81.70;;;;;;;10.15;53.06;94126.00;5050905;28;20848;-63
2021/12/03 06:02:20;;;;;;;66.90;52.63;;;;;;;10.30;52.44;94118.06;5052271;28;20989;-60
2021/12/03 06:04:48;;;;;;;170.97;103.37;;;;;;;10.18;52.49;94109.78;5052342;28;20453;-61
2021/12/03 06:07:15;;;;;;;7.23;3.93;;;;;;;9.77;52.33;94119.63;5051743;28;20824;-63
2021/12/03 06:09:43;;;;;;;8.67;3.67;;;;;;;9.77;52.26;94121.47;5052189;28;21040;-61
2021/12/03 06:12:10;;;;;;;6.07;3.40;;;;;;;9.81;52.17;94120.69;5052071;28;20437;-60
2021/12/03 06:14:36;;;;;;;39.10;31.70;;;;;;;9.75;52.75;94134.03;5052404;28;20526;-60
2021/12/03 06:17:04;;;;;;;64.67;43.93;;;;;;;9.89;52.17;94142.88;5051025;28;20482;-64
2021/12/03 06:19:33;;;;;;;8.07;5.20;;;;;;;10.12;51.89;94143.06;5051361;28;20811;-62
2021/12/03 06:22:00;;;;;;;6.57;3.00;;;;;;;10.06;51.29;94138.88;5051785;28;20454;-63
2021/12/03 06:24:27;;;;;;;4.87;2.40;;;;;;;10.14;51.66;94134.94;5052494;28;20500;-62
2021/12/03 06:26:54;;;;;;;9.10;3.20;;;;;;;10.09;52.13;94127.13;5050606;28;20522;-62
2021/12/03 06:29:21;;;;;;;9.17;3.30;;;;;;;10.39;52.34;94124.28;5051246;28;20546;-62
2021/12/03 06:31:48;;;;;;;6.97;2.90;;;;;;;10.32;52.06;94120.41;5050876;28;20451;-60
2021/12/03 06:34:15;;;;;;;5.23;2.70;;;;;;;10.32;52.38;94126.44;5051920;28;20808;-62
2021/12/03 06:36:43;;;;;;;7.07;2.83;;;;;;;10.09;51.94;94127.88;5051068;28;21017;-60
2021/12/03 06:39:10;;;;;;;3.13;2.33;;;;;;;10.37;51.31;94143.94;5051343;28;20467;-63
2021/12/03 06:41:37;;;;;;;7.43;3.50;;;;;;;10.24;50.90;94132.25;5051792;28;20813;-63
2021/12/03 06:44:05;;;;;;;8.43;3.13;;;;;;;10.50;50.85;94143.34;5051326;28;20476;-65
2021/12/03 06:46:32;;;;;;;3.90;3.13;;;;;;;10.55;50.89;94138.06;5051459;28;20431;-64
2021/12/03 06:48:59;;;;;;;3.93;2.87;;;;;;;10.58;50.89;94151.41;5051114;28;20501;-63
2021/12/03 06:51:27;;;;;;;5.60;3.60;;;;;;;10.02;51.73;94152.75;5051397;28;20775;-62
2021/12/03 06:53:57;;;;;;;7.00;3.67;;;;;;;9.97;52.02;94166.66;5051011;28;20451;-64
2021/12/03 06:56:32;;;;;;;7.60;4.10;;;;;;;10.09;51.95;94164.53;5050911;28;20467;-61
2021/12/03 06:59:00;;;;;;;6.00;3.87;;;;;;;10.32;51.86;94170.16;5050747;28;20475;-61
2021/12/03 07:01:27;;;;;;;14.17;6.63;;;;;;;10.29;52.05;94174.13;5051454;28;20443;-61
2021/12/03 07:03:54;;;;;;;14.13;4.33;;;;;;;10.39;51.66;94173.25;5050851;28;20518;-59
2021/12/03 07:06:21;;;;;;;14.07;9.70;;;;;;;10.65;51.14;94144.03;5051283;28;20490;-60
2021/12/03 07:08:48;;;;;;;7.57;3.33;;;;;;;10.64;50.89;94162.59;5050983;28;20469;-63
2021/12/03 07:11:17;;;;;;;9.67;3.17;;;;;;;10.81;50.81;94161.19;5049922;28;20467;-64
2021/12/03 07:13:44;;;;;;;5.33;3.53;;;;;;;10.62;51.21;94183.84;5050651;28;20459;-61
2021/12/03 07:16:11;;;;;;;6.40;3.73;;;;;;;10.28;51.54;94176.97;5050794;28;20945;-60
2021/12/03 07:18:38;;;;;;;6.63;3.60;;;;;;;10.48;51.22;94172.41;5051117;28;20427;-64
2021/12/03 07:21:05;;;;;;;5.80;3.37;;;;;;;10.56;51.38;94153.53;5050997;28;20474;-64
2021/12/03 07:23:32;;;;;;;6.97;4.50;;;;;;;10.70;50.92;94153.66;5050594;28;20970;-63
2021/12/03 07:26:02;;;;;;;7.17;3.70;;;;;;;10.71;51.19;94165.72;5050743;28;20834;-63
2021/12/03 07:28:30;;;;;;;5.23;3.50;;;;;;;10.54;51.90;94162.69;5050347;28;20462;-63
2021/12/03 07:30:57;;;;;;;6.43;3.03;;;;;;;10.75;51.98;94172.75;5050838;28;20512;-65
2021/12/03 07:33:27;;;;;;;7.70;2.77;;;;;;;11.04;51.87;94149.97;5050339;28;20489;-62
2021/12/03 07:35:54;;;;;;;4.47;1.80;;;;;;;11.39;51.00;94146.25;5050443;28;20450;-63
2021/12/03 07:38:21;;;;;;;4.83;1.70;;;;;;;11.67;50.75;94153.31;5050519;28;21021;-61
2021/12/03 07:40:49;;;;;;;7.90;1.80;;;;;;;11.91;50.03;94137.56;5049088;28;20443;-61
2021/12/03 07:43:17;;;;;;;6.07;2.10;;;;;;;12.17;49.41;94126.44;5050226;28;20941;-61
2021/12/03 07:45:45;;;;;;;6.93;1.80;;;;;;;12.32;48.80;94133.31;5050973;28;20447;-63
2021/12/03 07:48:13;;;;;;;5.73;1.87;;;;;;;12.49;49.15;94130.22;5049668;28;20478;-62
2021/12/03 07:50:42;;;;;;;7.27;2.37;;;;;;;12.60;48.91;94142.13;5050499;28;20834;-64
2021/12/03 07:53:17;;;;;;;4.80;2.30;;;;;;;12.69;48.41;94149.09;5050128;28;20447;-63
2021/12/03 07:55:48;;;;;;;5.90;2.27;;;;;;;12.65;48.86;94144.69;5050385;28;21393;-62
2021/12/03 07:58:16;;;;;;;3.30;1.60;;;;;;;12.77;47.63;94151.06;5049896;28;20580;-62
2021/12/03 08:00:44;;;;;;;7.47;1.53;;;;;;;12.92;47.75;94150.81;5050316;28;20450;-62
2021/12/03 08:03:17;;;;;;;6.17;2.10;;;;;;;12.84;48.12;94145.44;5049935;28;20447;-62
2021/12/03 08:05:44;;;;;;;5.47;2.23;;;;;;;12.98;47.77;94162.81;5050250;28;20443;-64
2021/12/03 08:08:12;;;;;;;5.10;1.90;;;;;;;13.04;47.49;94161.72;5049586;28;20516;-62
2021/12/03 08:10:40;;;;;;;7.47;1.83;;;;;;;13.06;47.07;94167.44;5050081;28;20461;-63
2021/12/03 08:13:07;;;;;;;4.70;1.60;;;;;;;13.18;47.20;94173.06;5049766;28;20866;-63
2021/12/03 08:15:37;;;;;;;6.17;1.60;;;;;;;13.23;47.31;94141.41;5049931;28;20442;-62
2021/12/03 08:18:06;;;;;;;8.80;2.00;;;;;;;13.18;47.14;94159.13;5049503;28;20545;-61
2021/12/03 08:20:33;;;;;;;7.03;2.27;;;;;;;13.00;46.97;94163.31;5050249;28;20450;-60
2021/12/03 08:23:01;;;;;;;7.73;2.47;;;;;;;13.13;47.07;94170.50;5049317;28;20451;-61
2021/12/03 08:25:31;;;;;;;3.93;2.00;;;;;;;13.36;46.85;94168.03;5049788;28;20423;-61
2021/12/03 08:27:58;;;;;;;5.40;1.80;;;;;;;13.43;46.69;94171.06;5049357;28;20534;-63
2021/12/03 08:30:31;;;;;;;3.97;1.77;;;;;;;13.40;46.79;94158.47;5049978;28;20977;-61
2021/12/03 08:32:58;;;;;;;3.90;1.70;;;;;;;13.35;46.78;94179.63;5049012;28;20443;-61
2021/12/03 08:35:25;;;;;;;9.50;2.30;;;;;;;13.45;46.72;94174.94;5049618;28;20439;-61
2021/12/03 08:37:53;;;;;;;10.07;1.90;;;;;;;13.26;46.81;94183.97;5049085;28;20612;-59
2021/12/03 08:40:21;;;;;;;2.80;1.20;;;;;;;13.39;45.81;94183.22;5049250;28;20957;-62
2021/12/03 08:42:49;;;;;;;7.17;1.73;;;;;;;13.62;44.94;94177.03;5049385;28;20482;-63
2021/12/03 08:45:20;;;;;;;6.70;1.57;;;;;;;13.52;46.29;94175.34;5050101;28;20826;-61
2021/12/03 08:47:51;;;;;;;5.90;1.80;;;;;;;13.58;45.46;94186.56;5049074;28;20553;-61
2021/12/03 08:50:28;;;;;;;6.23;1.90;;;;;;;13.55;45.41;94179.25;5049932;28;20465;-61
2021/12/03 08:55:34;;;;;;;4.10;2.03;;;;;;;13.55;45.69;94177.41;5049536;28;20446;-62
2021/12/03 08:58:01;;;;;;;7.13;2.07;;;;;;;13.55;45.84;94180.06;5049363;28;20470;-62
2021/12/03 09:00:30;;;;;;;6.73;2.00;;;;;;;13.51;46.03;94176.44;5048274;28;20443;-63
2021/12/03 09:02:57;;;;;;;7.03;2.23;;;;;;;13.61;45.59;94186.00;5049410;28;20443;-63
2021/12/03 09:05:32;;;;;;;7.37;2.13;;;;;;;13.39;46.32;94188.50;5049715;28;20439;-62
2021/12/03 09:08:00;;;;;;;4.00;1.90;;;;;;;13.50;46.14;94195.16;5049664;28;20777;-63
2021/12/03 09:10:37;;;;;;;6.33;1.60;;;;;;;13.42;46.57;94195.81;5049061;28;20825;-63
2021/12/03 09:13:05;;;;;;;4.23;2.20;;;;;;;13.60;45.32;94201.00;5049351;28;20434;-63
2021/12/03 09:15:44;;;;;;;5.13;2.33;;;;;;;13.52;45.99;94187.75;5049381;28;20534;-62
2021/12/03 09:18:27;;;;;;;5.27;1.43;;;;;;;13.44;45.28;94201.56;5048732;28;20478;-62
2021/12/03 09:21:25;;;;;;;6.33;2.60;;;;;;;13.57;45.10;94198.19;5051277;28;20470;-61
2021/12/03 09:24:03;;;;;;;7.47;2.30;;;;;;;13.57;45.49;94185.81;5053010;28;20509;-64
2021/12/03 09:26:31;;;;;;;8.63;2.77;;;;;;;13.45;46.40;94168.94;5053062;28;20514;-62
2021/12/03 09:29:05;;;;;;;2.83;1.20;;;;;;;13.52;44.69;94177.22;5052873;28;20506;-61
2021/12/03 09:31:35;;;;;;;5.20;1.70;;;;;;;13.52;44.64;94187.75;5053076;28;20456;-61
2021/12/03 09:34:15;;;;;;;9.70;1.67;;;;;;;13.77;44.38;94187.28;5053033;28;20446;-61
2021/12/03 09:36:43;;;;;;;4.20;1.43;;;;;;;13.70;44.21;94205.31;5053299;28;20447;-60
2021/12/03 09:39:17;;;;;;;4.60;1.40;;;;;;;13.83;44.00;94199.28;5052887;28;20431;-61
2021/12/03 09:41:44;;;;;;;6.10;1.43;;;;;;;13.77;43.46;94189.91;5052740;28;20447;-62
2021/12/03 09:44:11;;;;;;;8.27;1.80;;;;;;;13.76;44.86;94202.28;5052847;28;20449;-64
2021/12/03 09:46:38;;;;;;;4.47;1.47;;;;;;;13.84;43.92;94206.91;5052608;28;20485;-63
2021/12/03 09:51:44;;;;;;;5.20;1.50;;;;;;;14.28;43.10;94195.78;5053746;28;20446;-61
2021/12/03 09:57:14;;;;;;;7.90;2.37;;;;;;;14.33;43.47;94182.50;5051608;28;20548;-61
2021/12/03 10:14:47;;;;;;;7.73;1.90;;;;;;;13.91;44.69;94151.97;5052253;28;20534;-60
2021/12/03 10:31:03;;;;;;;8.63;1.90;;;;;;;13.84;43.09;94185.03;5052309;28;20450;-63
2021/12/03 10:41:28;;;;;;;16.37;6.90;;;;;;;14.54;42.73;94177.59;5052383;28;20447;-62
2021/12/03 10:46:32;;;;;;;11.07;2.27;;;;;;;14.34;41.59;94175.38;5050761;28;20435;-62
2021/12/03 10:54:14;;;;;;;7.37;1.60;;;;;;;14.21;41.94;94161.13;5051147;28;20427;-61
2021/12/03 11:00:38;;;;;;;10.13;2.20;;;;;;;14.46;41.97;94160.63;5051547;28;20478;-63
2021/12/03 11:44:36;;;;;;;10.93;3.83;;;;;;;14.64;40.75;94141.22;5049918;28;20482;-62
2021/12/03 12:05:10;;;;;;;8.37;1.30;;;;;;;14.81;39.81;94151.13;5067507;28;20543;-60
2021/12/03 12:16:51;;;;;;;5.90;1.80;;;;;;;15.55;39.77;94139.03;5050659;28;20442;-60
2021/12/03 12:24:48;;;;;;;10.10;1.70;;;;;;;15.07;40.17;94129.13;5049160;28;20912;-59
2021/12/03 12:56:32;;;;;;;8.47;1.90;;;;;;;14.53;40.77;94107.47;5049538;28;20836;-62
2021/12/03 14:42:47;;;;;;;59.63;21.77;;;;;;;14.39;38.60;94138.38;5051835;28;20443;-61
2021/12/03 14:45:16;;;;;;;13.50;2.80;;;;;;;14.73;38.71;94139.44;5052489;28;21046;-63
2021/12/03 14:48:44;;;;;;;6.80;1.40;;;;;;;14.70;38.09;94153.25;5050915;28;20907;-60
2021/12/03 14:55:53;;;;;;;13.27;2.53;;;;;;;14.84;38.01;94146.03;5051928;28;20819;-61
2021/12/03 14:58:38;;;;;;;11.37;4.13;;;;;;;14.69;38.40;94159.56;5051138;28;20469;-61
2021/12/03 15:01:22;;;;;;;8.63;2.27;;;;;;;14.62;39.09;94175.03;5051625;28;20449;-63
2021/12/03 15:06:51;;;;;;;10.80;4.00;;;;;;;14.72;39.37;94174.81;5051684;28;21088;-61
2021/12/03 15:09:22;;;;;;;9.83;2.30;;;;;;;14.74;38.62;94183.22;5051398;28;20442;-60
2021/12/03 15:12:21;;;;;;;161.63;43.87;;;;;;;14.47;39.01;94185.88;5050950;28;20439;-62
2021/12/03 15:31:52;;;;;;;23.93;5.60;;;;;;;14.68;38.83;94196.78;5050957;28;20977;-63
2021/12/03 15:33:55;;;;;;;20.37;5.40;;;;;;;14.91;38.40;94203.66;5053165;28;20546;-63
2021/12/03 15:58:21;;;;;;;4.30;1.30;;;;;;;14.39;41.63;94207.69;5049809;28;20500;-62
2021/12/03 16:03:45;;;;;;;12.97;5.77;;;;;;;13.48;45.71;94249.91;5050077;28;20443;-60
2021/12/03 16:09:06;;;;;;;19.30;10.73;;;;;;;12.57;50.34;94261.72;5049380;28;20435;-60
2021/12/03 16:17:01;;;;;;;11.83;4.33;;;;;;;12.52;49.16;94248.66;5050261;28;20447;-64
2021/12/03 16:54:12;;;;;;;10.17;3.97;;;;;;;10.24;56.57;94351.41;5049048;28;20450;-60
2021/12/03 16:56:45;;;;;;;6.67;3.60;;;;;;;10.28;56.12;94349.78;5041715;28;20454;-60
2021/12/03 16:59:14;;;;;;;5.67;3.43;;;;;;;10.11;56.70;94350.09;5037666;28;20477;-61
2021/12/03 17:10:03;;;;;;;8.03;3.90;;;;;;;10.12;56.58;94389.13;5034028;28;20439;-61
2021/12/03 17:48:39;;;;;;;5.40;2.67;;;;;;;8.53;58.60;94453.84;5040291;28;20917;-60
2021/12/03 17:51:11;;;;;;;3.73;2.70;;;;;;;8.91;58.21;94445.69;5049339;28;20453;-61
2021/12/03 17:56:20;;;;;;;3.63;3.00;;;;;;;8.43;59.04;94464.22;5052342;28;20446;-64
2021/12/03 17:58:51;;;;;;;26.97;21.67;;;;;;;8.57;59.96;94457.53;5052104;28;20471;-63
2021/12/03 18:04:27;;;;;;;3.37;2.30;;;;;;;8.40;59.96;94490.06;5047524;28;20445;-62
2021/12/03 18:09:39;;;;;;;3.20;2.27;;;;;;;8.20;60.54;94490.66;5045081;28;20691;-61
2021/12/03 18:45:24;;;;;;;1.80;1.53;;;;;;;6.50;65.20;94526.88;5048908;28;20204;-61
2021/12/03 18:51:07;;;;;;;145.53;113.03;;;;;;;6.57;67.29;94531.94;5052158;28;20205;-64
2021/12/03 18:53:40;;;;;;;26.33;15.10;;;;;;;6.47;66.29;94542.97;5050004;28;20539;-62
2021/12/03 18:56:17;;;;;;;4.97;1.85;;;;;;;6.17;66.79;94542.50;5051920;28;20458;-61
2021/12/03 18:58:47;;;;;;;3.75;2.03;;;;;;;6.01;67.67;94530.28;5051151;28;20572;-61
2021/12/03 19:01:14;;;;;;;3.10;2.00;;;;;;;6.09;68.31;94537.69;5048462;28;20212;-63
2021/12/03 19:06:36;;;;;;;20.75;13.20;;;;;;;5.92;70.55;94524.69;5044235;28;20646;-62
2021/12/03 19:09:15;;;;;;;111.70;83.53;;;;;;;5.99;71.46;94527.13;5050736;28;20212;-64
2021/12/03 19:14:19;;;;;;;3.05;2.15;;;;;;;5.96;69.79;94530.19;5049133;28;20698;-60
2021/12/03 19:16:47;;;;;;;3.40;1.73;;;;;;;5.72;69.54;94528.72;5050481;28;20189;-61